sensor_id;sensor_type;location;lat;lon;timestamp;P1;durP1;ratioP1;P2;durP2;ratioP2
72711;SDS011;60828;40.292;17.998;2022-08-01T00:02:04;7.70;;;3.40;;
72711;SDS011;60828;40.292;17.998;2022-08-01T00:04:30;10.43;;;3.53;;
72711;SDS011;60828;40.292;17.998;2022-08-01T00:06:55;7.07;;;3.27;;
72711;SDS011;60828;40.292;17.998;2022-08-01T00:09:20;8.32;;;3.60;;
72711;SDS011;60828;40.292;17.998;2022-08-01T00:11:46;9.50;;;3.60;;
72711;SDS011;60828;40.292;17.998;2022-08-01T00:14:11;8.77;;;3.63;;
72711;SDS011;60828;40.292;17.998;2022-08-01T00:16:37;8.73;;;3.50;;
72711;SDS011;60828;40.292;17.998;2022-08-01T00:19:02;11.83;;;3.87;;
72711;SDS011;60828;40.292;17.998;2022-08-01T00:21:28;9.77;;;4.00;;
72711;SDS011;60828;40.292;17.998;2022-08-01T00:23:54;9.73;;;4.50;;
72711;SDS011;60828;40.292;17.998;2022-08-01T00:26:19;7.53;;;4.30;;
72711;SDS011;60828;40.292;17.998;2022-08-01T00:28:45;7.93;;;4.13;;
72711;SDS011;60828;40.292;17.998;2022-08-01T00:31:11;10.03;;;4.10;;
72711;SDS011;60828;40.292;17.998;2022-08-01T00:33:36;15.07;;;4.20;;
72711;SDS011;60828;40.292;17.998;2022-08-01T00:36:02;8.60;;;4.10;;
72711;SDS011;60828;40.292;17.998;2022-08-01T00:38:27;9.02;;;3.97;;
72711;SDS011;60828;40.292;17.998;2022-08-01T00:40:53;10.30;;;4.50;;
72711;SDS011;60828;40.292;17.998;2022-08-01T00:43:18;8.70;;;3.97;;
72711;SDS011;60828;40.292;17.998;2022-08-01T00:45:44;8.07;;;4.30;;
72711;SDS011;60828;40.292;17.998;2022-08-01T00:48:09;9.97;;;3.23;;
72711;SDS011;60828;40.292;17.998;2022-08-01T00:50:35;8.40;;;3.53;;
72711;SDS011;60828;40.292;17.998;2022-08-01T00:53:01;10.57;;;3.85;;
72711;SDS011;60828;40.292;17.998;2022-08-01T00:55:27;8.90;;;3.40;;
72711;SDS011;60828;40.292;17.998;2022-08-01T00:57:53;7.45;;;2.90;;
72711;SDS011;60828;40.292;17.998;2022-08-01T01:00:20;8.27;;;3.13;;
72711;SDS011;60828;40.292;17.998;2022-08-01T01:02:47;7.65;;;3.05;;
72711;SDS011;60828;40.292;17.998;2022-08-01T01:05:12;9.90;;;3.20;;
72711;SDS011;60828;40.292;17.998;2022-08-01T01:07:55;9.40;;;3.07;;
72711;SDS011;60828;40.292;17.998;2022-08-01T01:13:05;7.45;;;2.97;;
72711;SDS011;60828;40.292;17.998;2022-08-01T01:15:38;5.27;;;2.60;;
72711;SDS011;60828;40.292;17.998;2022-08-01T01:18:11;9.18;;;2.80;;
72711;SDS011;60828;40.292;17.998;2022-08-01T01:20:46;10.10;;;2.85;;
72711;SDS011;60828;40.292;17.998;2022-08-01T01:31:43;9.07;;;2.80;;
72711;SDS011;60828;40.292;17.998;2022-08-01T01:34:13;8.90;;;2.70;;
72711;SDS011;60828;40.292;17.998;2022-08-01T01:36:42;7.57;;;2.35;;
72711;SDS011;60828;40.292;17.998;2022-08-01T01:39:11;6.07;;;2.50;;
72711;SDS011;60828;40.292;17.998;2022-08-01T01:41:39;9.30;;;2.80;;
72711;SDS011;60828;40.292;17.998;2022-08-01T01:44:05;7.45;;;2.60;;
72711;SDS011;60828;40.292;17.998;2022-08-01T01:46:33;8.57;;;2.53;;
72711;SDS011;60828;40.292;17.998;2022-08-01T01:49:00;6.13;;;2.75;;
72711;SDS011;60828;40.292;17.998;2022-08-01T01:51:27;6.00;;;2.70;;
72711;SDS011;60828;40.292;17.998;2022-08-01T01:53:55;6.43;;;2.70;;
72711;SDS011;60828;40.292;17.998;2022-08-01T01:56:22;6.45;;;2.67;;
72711;SDS011;60828;40.292;17.998;2022-08-01T01:58:53;11.77;;;3.03;;
72711;SDS011;60828;40.292;17.998;2022-08-01T02:01:21;7.18;;;3.00;;
72711;SDS011;60828;40.292;17.998;2022-08-01T02:03:50;7.57;;;2.92;;
72711;SDS011;60828;40.292;17.998;2022-08-01T02:06:19;7.67;;;2.97;;
72711;SDS011;60828;40.292;17.998;2022-08-01T02:08:46;8.57;;;3.22;;
72711;SDS011;60828;40.292;17.998;2022-08-01T02:11:13;8.02;;;3.00;;
72711;SDS011;60828;40.292;17.998;2022-08-01T02:13:52;5.40;;;2.70;;
72711;SDS011;60828;40.292;17.998;2022-08-01T02:16:24;8.02;;;2.90;;
72711;SDS011;60828;40.292;17.998;2022-08-01T02:18:52;12.77;;;2.90;;
72711;SDS011;60828;40.292;17.998;2022-08-01T02:21:20;9.40;;;2.78;;
72711;SDS011;60828;40.292;17.998;2022-08-01T02:23:51;9.52;;;3.40;;
72711;SDS011;60828;40.292;17.998;2022-08-01T02:26:19;10.63;;;3.15;;
72711;SDS011;60828;40.292;17.998;2022-08-01T02:29:02;9.52;;;2.97;;
72711;SDS011;60828;40.292;17.998;2022-08-01T02:31:32;8.90;;;3.00;;
72711;SDS011;60828;40.292;17.998;2022-08-01T02:34:02;9.65;;;3.30;;
72711;SDS011;60828;40.292;17.998;2022-08-01T02:36:32;7.00;;;3.50;;
72711;SDS011;60828;40.292;17.998;2022-08-01T02:39:03;10.25;;;3.13;;
72711;SDS011;60828;40.292;17.998;2022-08-01T02:41:36;6.13;;;2.78;;
72711;SDS011;60828;40.292;17.998;2022-08-01T02:44:07;6.10;;;3.07;;
72711;SDS011;60828;40.292;17.998;2022-08-01T02:46:37;8.48;;;2.80;;
72711;SDS011;60828;40.292;17.998;2022-08-01T02:49:06;6.20;;;2.88;;
72711;SDS011;60828;40.292;17.998;2022-08-01T02:51:34;8.82;;;3.38;;
72711;SDS011;60828;40.292;17.998;2022-08-01T02:54:01;6.40;;;3.20;;
72711;SDS011;60828;40.292;17.998;2022-08-01T02:56:29;9.23;;;2.97;;
72711;SDS011;60828;40.292;17.998;2022-08-01T02:59:02;10.52;;;3.15;;
72711;SDS011;60828;40.292;17.998;2022-08-01T03:01:31;9.55;;;3.08;;
72711;SDS011;60828;40.292;17.998;2022-08-01T03:03:58;12.65;;;3.20;;
72711;SDS011;60828;40.292;17.998;2022-08-01T03:06:24;5.57;;;2.92;;
72711;SDS011;60828;40.292;17.998;2022-08-01T03:08:50;11.20;;;2.80;;
72711;SDS011;60828;40.292;17.998;2022-08-01T03:11:16;10.82;;;4.13;;
72711;SDS011;60828;40.292;17.998;2022-08-01T03:13:43;10.75;;;3.53;;
72711;SDS011;60828;40.292;17.998;2022-08-01T03:16:12;9.00;;;2.97;;
72711;SDS011;60828;40.292;17.998;2022-08-01T03:18:38;8.45;;;3.10;;
72711;SDS011;60828;40.292;17.998;2022-08-01T03:21:06;8.30;;;3.37;;
72711;SDS011;60828;40.292;17.998;2022-08-01T03:23:33;10.45;;;3.20;;
72711;SDS011;60828;40.292;17.998;2022-08-01T03:26:01;14.75;;;4.20;;
72711;SDS011;60828;40.292;17.998;2022-08-01T03:28:27;8.97;;;3.50;;
72711;SDS011;60828;40.292;17.998;2022-08-01T03:30:54;9.52;;;3.42;;
72711;SDS011;60828;40.292;17.998;2022-08-01T03:33:20;7.78;;;3.33;;
72711;SDS011;60828;40.292;17.998;2022-08-01T03:35:46;6.97;;;2.97;;
72711;SDS011;60828;40.292;17.998;2022-08-01T03:38:16;7.80;;;3.07;;
72711;SDS011;60828;40.292;17.998;2022-08-01T03:40:47;9.15;;;4.00;;
72711;SDS011;60828;40.292;17.998;2022-08-01T03:43:22;7.47;;;3.45;;
72711;SDS011;60828;40.292;17.998;2022-08-01T03:45:53;8.00;;;3.33;;
72711;SDS011;60828;40.292;17.998;2022-08-01T03:48:22;15.38;;;3.60;;
72711;SDS011;60828;40.292;17.998;2022-08-01T03:50:52;9.53;;;3.20;;
72711;SDS011;60828;40.292;17.998;2022-08-01T03:53:22;11.10;;;3.20;;
72711;SDS011;60828;40.292;17.998;2022-08-01T03:55:50;11.45;;;3.20;;
72711;SDS011;60828;40.292;17.998;2022-08-01T03:58:18;10.52;;;3.30;;
72711;SDS011;60828;40.292;17.998;2022-08-01T04:00:45;10.27;;;3.60;;
72711;SDS011;60828;40.292;17.998;2022-08-01T04:03:11;11.33;;;3.73;;
72711;SDS011;60828;40.292;17.998;2022-08-01T04:05:40;10.07;;;4.15;;
72711;SDS011;60828;40.292;17.998;2022-08-01T04:08:06;16.08;;;4.63;;
72711;SDS011;60828;40.292;17.998;2022-08-01T04:10:31;15.00;;;5.27;;
72711;SDS011;60828;40.292;17.998;2022-08-01T04:12:57;15.55;;;5.95;;
72711;SDS011;60828;40.292;17.998;2022-08-01T04:15:23;15.57;;;6.70;;
72711;SDS011;60828;40.292;17.998;2022-08-01T04:17:48;12.10;;;5.63;;
72711;SDS011;60828;40.292;17.998;2022-08-01T04:20:14;19.70;;;7.33;;
72711;SDS011;60828;40.292;17.998;2022-08-01T04:22:40;17.75;;;6.95;;
72711;SDS011;60828;40.292;17.998;2022-08-01T04:25:08;18.75;;;5.65;;
72711;SDS011;60828;40.292;17.998;2022-08-01T04:27:38;19.23;;;6.10;;
72711;SDS011;60828;40.292;17.998;2022-08-01T04:30:07;12.02;;;4.45;;
72711;SDS011;60828;40.292;17.998;2022-08-01T04:32:35;15.20;;;4.25;;
72711;SDS011;60828;40.292;17.998;2022-08-01T04:35:04;13.50;;;4.15;;
72711;SDS011;60828;40.292;17.998;2022-08-01T04:37:33;16.67;;;5.07;;
72711;SDS011;60828;40.292;17.998;2022-08-01T04:40:02;11.03;;;3.93;;
72711;SDS011;60828;40.292;17.998;2022-08-01T04:42:31;11.02;;;3.85;;
72711;SDS011;60828;40.292;17.998;2022-08-01T04:44:58;12.98;;;4.75;;
72711;SDS011;60828;40.292;17.998;2022-08-01T04:47:24;12.75;;;4.22;;
72711;SDS011;60828;40.292;17.998;2022-08-01T04:49:51;14.82;;;4.32;;
72711;SDS011;60828;40.292;17.998;2022-08-01T04:52:16;13.00;;;4.00;;
72711;SDS011;60828;40.292;17.998;2022-08-01T04:54:43;16.05;;;6.05;;
72711;SDS011;60828;40.292;17.998;2022-08-01T04:57:08;13.20;;;4.47;;
72711;SDS011;60828;40.292;17.998;2022-08-01T04:59:35;17.27;;;4.63;;
72711;SDS011;60828;40.292;17.998;2022-08-01T05:02:06;12.23;;;5.35;;
72711;SDS011;60828;40.292;17.998;2022-08-01T05:04:37;10.85;;;5.40;;
72711;SDS011;60828;40.292;17.998;2022-08-01T05:07:03;13.02;;;5.40;;
72711;SDS011;60828;40.292;17.998;2022-08-01T05:09:29;17.53;;;5.20;;
72711;SDS011;60828;40.292;17.998;2022-08-01T05:11:56;13.13;;;5.60;;
72711;SDS011;60828;40.292;17.998;2022-08-01T05:14:24;10.45;;;6.05;;
72711;SDS011;60828;40.292;17.998;2022-08-01T05:16:53;12.50;;;6.03;;
72711;SDS011;60828;40.292;17.998;2022-08-01T05:19:19;12.30;;;6.67;;
72711;SDS011;60828;40.292;17.998;2022-08-01T05:21:46;10.37;;;5.70;;
72711;SDS011;60828;40.292;17.998;2022-08-01T05:24:12;11.50;;;6.13;;
72711;SDS011;60828;40.292;17.998;2022-08-01T05:26:38;12.05;;;6.35;;
72711;SDS011;60828;40.292;17.998;2022-08-01T05:29:04;11.13;;;6.13;;
72711;SDS011;60828;40.292;17.998;2022-08-01T05:31:29;10.98;;;6.07;;
72711;SDS011;60828;40.292;17.998;2022-08-01T05:33:55;12.93;;;6.13;;
72711;SDS011;60828;40.292;17.998;2022-08-01T05:36:20;8.87;;;5.90;;
72711;SDS011;60828;40.292;17.998;2022-08-01T05:38:46;9.30;;;5.77;;
72711;SDS011;60828;40.292;17.998;2022-08-01T05:41:11;10.63;;;5.80;;
72711;SDS011;60828;40.292;17.998;2022-08-01T05:43:40;11.20;;;5.97;;
72711;SDS011;60828;40.292;17.998;2022-08-01T05:46:05;7.78;;;5.50;;
72711;SDS011;60828;40.292;17.998;2022-08-01T05:48:31;12.63;;;5.80;;
72711;SDS011;60828;40.292;17.998;2022-08-01T05:50:56;10.50;;;5.30;;
72711;SDS011;60828;40.292;17.998;2022-08-01T05:53:22;8.38;;;5.20;;
72711;SDS011;60828;40.292;17.998;2022-08-01T05:55:48;10.70;;;5.17;;
72711;SDS011;60828;40.292;17.998;2022-08-01T05:58:13;6.87;;;5.10;;
72711;SDS011;60828;40.292;17.998;2022-08-01T06:00:39;8.63;;;4.72;;
72711;SDS011;60828;40.292;17.998;2022-08-01T06:03:05;10.20;;;4.80;;
72711;SDS011;60828;40.292;17.998;2022-08-01T06:05:30;10.18;;;4.55;;
72711;SDS011;60828;40.292;17.998;2022-08-01T06:07:56;11.43;;;5.97;;
72711;SDS011;60828;40.292;17.998;2022-08-01T06:10:23;10.85;;;4.57;;
72711;SDS011;60828;40.292;17.998;2022-08-01T06:12:48;13.80;;;5.33;;
72711;SDS011;60828;40.292;17.998;2022-08-01T06:15:14;7.97;;;5.28;;
72711;SDS011;60828;40.292;17.998;2022-08-01T06:17:39;9.83;;;5.57;;
72711;SDS011;60828;40.292;17.998;2022-08-01T06:20:06;9.68;;;4.63;;
72711;SDS011;60828;40.292;17.998;2022-08-01T06:22:32;8.35;;;4.80;;
72711;SDS011;60828;40.292;17.998;2022-08-01T06:24:58;6.30;;;4.20;;
72711;SDS011;60828;40.292;17.998;2022-08-01T06:27:23;8.50;;;5.10;;
72711;SDS011;60828;40.292;17.998;2022-08-01T06:29:52;12.10;;;4.78;;
72711;SDS011;60828;40.292;17.998;2022-08-01T06:32:21;9.05;;;7.03;;
72711;SDS011;60828;40.292;17.998;2022-08-01T06:34:48;9.57;;;4.97;;
72711;SDS011;60828;40.292;17.998;2022-08-01T06:37:13;8.00;;;4.40;;
72711;SDS011;60828;40.292;17.998;2022-08-01T06:39:39;9.07;;;4.60;;
72711;SDS011;60828;40.292;17.998;2022-08-01T06:42:05;8.50;;;4.50;;
72711;SDS011;60828;40.292;17.998;2022-08-01T06:44:30;12.17;;;5.20;;
72711;SDS011;60828;40.292;17.998;2022-08-01T06:46:56;6.43;;;4.33;;
72711;SDS011;60828;40.292;17.998;2022-08-01T06:49:23;8.52;;;4.40;;
72711;SDS011;60828;40.292;17.998;2022-08-01T06:51:49;9.60;;;4.72;;
72711;SDS011;60828;40.292;17.998;2022-08-01T06:54:15;8.43;;;4.60;;
72711;SDS011;60828;40.292;17.998;2022-08-01T06:56:41;7.68;;;4.30;;
72711;SDS011;60828;40.292;17.998;2022-08-01T06:59:07;8.43;;;4.47;;
72711;SDS011;60828;40.292;17.998;2022-08-01T07:01:32;9.67;;;4.33;;
72711;SDS011;60828;40.292;17.998;2022-08-01T07:03:58;15.38;;;4.40;;
72711;SDS011;60828;40.292;17.998;2022-08-01T07:06:24;9.07;;;3.90;;
72711;SDS011;60828;40.292;17.998;2022-08-01T07:08:51;6.22;;;3.90;;
72711;SDS011;60828;40.292;17.998;2022-08-01T07:11:17;10.93;;;4.40;;
72711;SDS011;60828;40.292;17.998;2022-08-01T08:31:55;7.82;;;3.78;;
72711;SDS011;60828;40.292;17.998;2022-08-01T08:34:21;6.88;;;3.83;;
72711;SDS011;60828;40.292;17.998;2022-08-01T08:36:50;5.47;;;3.72;;
72711;SDS011;60828;40.292;17.998;2022-08-01T08:39:17;5.75;;;3.42;;
72711;SDS011;60828;40.292;17.998;2022-08-01T08:41:43;7.27;;;3.87;;
72711;SDS011;60828;40.292;17.998;2022-08-01T08:44:09;9.38;;;3.67;;
72711;SDS011;60828;40.292;17.998;2022-08-01T08:46:40;5.35;;;3.70;;
72711;SDS011;60828;40.292;17.998;2022-08-01T08:49:08;7.00;;;4.15;;
72711;SDS011;60828;40.292;17.998;2022-08-01T08:51:34;10.27;;;3.70;;
72711;SDS011;60828;40.292;17.998;2022-08-01T08:54:03;7.10;;;3.70;;
72711;SDS011;60828;40.292;17.998;2022-08-01T08:56:31;8.25;;;3.70;;
72711;SDS011;60828;40.292;17.998;2022-08-01T08:59:00;14.70;;;5.10;;
72711;SDS011;60828;40.292;17.998;2022-08-01T09:03:52;9.57;;;4.43;;
72711;SDS011;60828;40.292;17.998;2022-08-01T09:06:18;7.85;;;3.50;;
72711;SDS011;60828;40.292;17.998;2022-08-01T09:08:44;6.40;;;4.17;;
72711;SDS011;60828;40.292;17.998;2022-08-01T09:11:10;7.72;;;3.90;;
72711;SDS011;60828;40.292;17.998;2022-08-01T09:13:36;7.05;;;3.47;;
72711;SDS011;60828;40.292;17.998;2022-08-01T09:16:02;7.20;;;3.60;;
72711;SDS011;60828;40.292;17.998;2022-08-01T09:18:33;9.68;;;3.70;;
72711;SDS011;60828;40.292;17.998;2022-08-01T09:23:31;6.50;;;3.78;;
72711;SDS011;60828;40.292;17.998;2022-08-01T09:25:58;8.27;;;3.40;;
72711;SDS011;60828;40.292;17.998;2022-08-01T09:28:28;6.45;;;3.60;;
72711;SDS011;60828;40.292;17.998;2022-08-01T09:30:55;6.97;;;3.27;;
72711;SDS011;60828;40.292;17.998;2022-08-01T09:33:21;8.55;;;3.47;;
72711;SDS011;60828;40.292;17.998;2022-08-01T09:35:56;7.80;;;3.30;;
72711;SDS011;60828;40.292;17.998;2022-08-01T09:38:23;7.17;;;3.50;;
72711;SDS011;60828;40.292;17.998;2022-08-01T09:40:55;7.13;;;3.40;;
72711;SDS011;60828;40.292;17.998;2022-08-01T09:43:23;6.82;;;3.28;;
72711;SDS011;60828;40.292;17.998;2022-08-01T09:45:50;5.90;;;3.47;;
72711;SDS011;60828;40.292;17.998;2022-08-01T09:48:17;5.47;;;3.20;;
72711;SDS011;60828;40.292;17.998;2022-08-01T09:50:44;9.20;;;3.20;;
72711;SDS011;60828;40.292;17.998;2022-08-01T09:53:11;5.00;;;3.10;;
72711;SDS011;60828;40.292;17.998;2022-08-01T09:55:37;8.57;;;3.47;;
72711;SDS011;60828;40.292;17.998;2022-08-01T09:58:04;6.93;;;3.35;;
72711;SDS011;60828;40.292;17.998;2022-08-01T10:00:31;5.18;;;3.28;;
72711;SDS011;60828;40.292;17.998;2022-08-01T10:02:57;12.00;;;3.53;;
72711;SDS011;60828;40.292;17.998;2022-08-01T10:05:34;5.72;;;3.00;;
72711;SDS011;60828;40.292;17.998;2022-08-01T10:08:02;5.90;;;3.47;;
72711;SDS011;60828;40.292;17.998;2022-08-01T10:10:29;5.60;;;3.30;;
72711;SDS011;60828;40.292;17.998;2022-08-01T10:12:56;7.47;;;2.92;;
72711;SDS011;60828;40.292;17.998;2022-08-01T10:15:23;9.07;;;3.73;;
72711;SDS011;60828;40.292;17.998;2022-08-01T10:17:53;4.75;;;2.97;;
72711;SDS011;60828;40.292;17.998;2022-08-01T10:20:21;7.93;;;4.00;;
72711;SDS011;60828;40.292;17.998;2022-08-01T10:22:49;8.02;;;3.22;;
72711;SDS011;60828;40.292;17.998;2022-08-01T10:25:18;8.15;;;3.00;;
72711;SDS011;60828;40.292;17.998;2022-08-01T10:27:45;7.73;;;3.00;;
72711;SDS011;60828;40.292;17.998;2022-08-01T10:30:14;6.03;;;2.90;;
72711;SDS011;60828;40.292;17.998;2022-08-01T10:32:40;5.68;;;3.25;;
72711;SDS011;60828;40.292;17.998;2022-08-01T10:35:08;8.20;;;3.22;;
72711;SDS011;60828;40.292;17.998;2022-08-01T10:37:34;8.53;;;3.00;;
72711;SDS011;60828;40.292;17.998;2022-08-01T10:40:00;4.78;;;2.72;;
72711;SDS011;60828;40.292;17.998;2022-08-01T10:42:27;8.18;;;3.35;;
72711;SDS011;60828;40.292;17.998;2022-08-01T10:44:53;7.22;;;3.53;;
72711;SDS011;60828;40.292;17.998;2022-08-01T10:47:32;7.35;;;2.97;;
72711;SDS011;60828;40.292;17.998;2022-08-01T10:50:29;16.73;;;3.73;;
72711;SDS011;60828;40.292;17.998;2022-08-01T10:55:51;4.90;;;2.95;;
72711;SDS011;60828;40.292;17.998;2022-08-01T10:58:41;6.30;;;3.35;;
72711;SDS011;60828;40.292;17.998;2022-08-01T11:01:21;15.88;;;3.80;;
72711;SDS011;60828;40.292;17.998;2022-08-01T11:04:09;5.50;;;2.97;;
72711;SDS011;60828;40.292;17.998;2022-08-01T11:06:40;6.25;;;3.28;;
72711;SDS011;60828;40.292;17.998;2022-08-01T11:09:31;5.75;;;3.15;;
72711;SDS011;60828;40.292;17.998;2022-08-01T11:15:15;5.97;;;3.50;;
72711;SDS011;60828;40.292;17.998;2022-08-01T11:17:42;6.50;;;3.10;;
72711;SDS011;60828;40.292;17.998;2022-08-01T11:20:16;5.47;;;3.40;;
72711;SDS011;60828;40.292;17.998;2022-08-01T11:30:48;7.43;;;3.10;;
72711;SDS011;60828;40.292;17.998;2022-08-01T11:33:47;5.18;;;2.80;;
72711;SDS011;60828;40.292;17.998;2022-08-01T11:38:39;5.10;;;2.80;;
72711;SDS011;60828;40.292;17.998;2022-08-01T11:52:07;5.47;;;3.45;;
72711;SDS011;60828;40.292;17.998;2022-08-01T11:54:50;5.20;;;3.28;;
72711;SDS011;60828;40.292;17.998;2022-08-01T11:57:23;7.80;;;3.40;;
72711;SDS011;60828;40.292;17.998;2022-08-01T11:59:52;5.38;;;3.00;;
72711;SDS011;60828;40.292;17.998;2022-08-01T12:02:23;7.25;;;3.25;;
72711;SDS011;60828;40.292;17.998;2022-08-01T12:04:52;7.63;;;2.90;;
72711;SDS011;60828;40.292;17.998;2022-08-01T12:07:19;7.00;;;3.25;;
72711;SDS011;60828;40.292;17.998;2022-08-01T12:09:46;8.10;;;3.60;;
72711;SDS011;60828;40.292;17.998;2022-08-01T12:12:15;5.25;;;3.10;;
72711;SDS011;60828;40.292;17.998;2022-08-01T12:14:42;6.07;;;3.35;;
72711;SDS011;60828;40.292;17.998;2022-08-01T12:17:09;6.30;;;3.22;;
72711;SDS011;60828;40.292;17.998;2022-08-01T12:19:35;4.53;;;3.43;;
72711;SDS011;60828;40.292;17.998;2022-08-01T12:22:21;4.30;;;3.00;;
72711;SDS011;60828;40.292;17.998;2022-08-01T12:24:48;7.50;;;4.20;;
72711;SDS011;60828;40.292;17.998;2022-08-01T12:27:23;5.97;;;3.10;;
72711;SDS011;60828;40.292;17.998;2022-08-01T12:29:50;6.10;;;3.50;;
72711;SDS011;60828;40.292;17.998;2022-08-01T12:35:04;7.45;;;3.03;;
72711;SDS011;60828;40.292;17.998;2022-08-01T12:37:30;5.43;;;3.10;;
72711;SDS011;60828;40.292;17.998;2022-08-01T12:39:57;6.75;;;3.30;;
72711;SDS011;60828;40.292;17.998;2022-08-01T12:42:24;8.02;;;3.22;;
72711;SDS011;60828;40.292;17.998;2022-08-01T12:44:50;9.00;;;3.60;;
72711;SDS011;60828;40.292;17.998;2022-08-01T12:47:17;5.57;;;3.20;;
72711;SDS011;60828;40.292;17.998;2022-08-01T12:49:43;7.70;;;3.67;;
72711;SDS011;60828;40.292;17.998;2022-08-01T12:52:10;6.00;;;3.40;;
72711;SDS011;60828;40.292;17.998;2022-08-01T12:57:36;10.75;;;3.40;;
72711;SDS011;60828;40.292;17.998;2022-08-01T13:00:11;4.53;;;3.40;;
72711;SDS011;60828;40.292;17.998;2022-08-01T13:02:47;6.10;;;3.50;;
72711;SDS011;60828;40.292;17.998;2022-08-01T13:05:14;4.80;;;2.67;;
72711;SDS011;60828;40.292;17.998;2022-08-01T13:07:45;6.45;;;3.30;;
72711;SDS011;60828;40.292;17.998;2022-08-01T13:10:24;4.80;;;2.70;;
72711;SDS011;60828;40.292;17.998;2022-08-01T13:12:55;6.70;;;2.50;;
72711;SDS011;60828;40.292;17.998;2022-08-01T13:17:57;4.53;;;2.57;;
72711;SDS011;60828;40.292;17.998;2022-08-01T13:20:33;7.28;;;2.80;;
72711;SDS011;60828;40.292;17.998;2022-08-01T13:23:10;7.10;;;3.28;;
72711;SDS011;60828;40.292;17.998;2022-08-01T13:25:46;4.55;;;2.80;;
72711;SDS011;60828;40.292;17.998;2022-08-01T13:28:17;4.45;;;2.72;;
72711;SDS011;60828;40.292;17.998;2022-08-01T13:30:56;6.77;;;2.87;;
72711;SDS011;60828;40.292;17.998;2022-08-01T13:33:27;4.53;;;2.95;;
72711;SDS011;60828;40.292;17.998;2022-08-01T13:36:04;5.20;;;2.35;;
72711;SDS011;60828;40.292;17.998;2022-08-01T13:38:30;5.20;;;2.40;;
72711;SDS011;60828;40.292;17.998;2022-08-01T13:41:14;4.37;;;2.37;;
72711;SDS011;60828;40.292;17.998;2022-08-01T13:43:40;5.85;;;2.30;;
72711;SDS011;60828;40.292;17.998;2022-08-01T13:46:06;5.50;;;2.03;;
72711;SDS011;60828;40.292;17.998;2022-08-01T13:48:31;6.38;;;2.47;;
72711;SDS011;60828;40.292;17.998;2022-08-01T13:50:58;5.45;;;2.60;;
72711;SDS011;60828;40.292;17.998;2022-08-01T13:53:24;8.80;;;3.10;;
72711;SDS011;60828;40.292;17.998;2022-08-01T13:55:50;5.22;;;3.00;;
72711;SDS011;60828;40.292;17.998;2022-08-01T13:58:16;6.75;;;2.70;;
72711;SDS011;60828;40.292;17.998;2022-08-01T14:00:41;7.50;;;2.63;;
72711;SDS011;60828;40.292;17.998;2022-08-01T14:03:07;5.73;;;2.70;;
72711;SDS011;60828;40.292;17.998;2022-08-01T14:05:34;9.27;;;2.47;;
72711;SDS011;60828;40.292;17.998;2022-08-01T14:08:00;4.35;;;2.45;;
72711;SDS011;60828;40.292;17.998;2022-08-01T14:10:26;4.83;;;2.10;;
72711;SDS011;60828;40.292;17.998;2022-08-01T14:12:51;5.07;;;2.17;;
72711;SDS011;60828;40.292;17.998;2022-08-01T14:15:17;8.57;;;2.43;;
72711;SDS011;60828;40.292;17.998;2022-08-01T14:17:43;7.43;;;2.90;;
72711;SDS011;60828;40.292;17.998;2022-08-01T14:20:09;6.30;;;2.80;;
72711;SDS011;60828;40.292;17.998;2022-08-01T14:22:35;5.25;;;2.30;;
72711;SDS011;60828;40.292;17.998;2022-08-01T14:25:01;5.07;;;2.13;;
72711;SDS011;60828;40.292;17.998;2022-08-01T14:27:26;6.40;;;2.25;;
72711;SDS011;60828;40.292;17.998;2022-08-01T14:29:55;5.07;;;2.40;;
72711;SDS011;60828;40.292;17.998;2022-08-01T14:32:20;6.30;;;2.40;;
72711;SDS011;60828;40.292;17.998;2022-08-01T14:34:46;7.33;;;2.30;;
72711;SDS011;60828;40.292;17.998;2022-08-01T14:37:11;6.32;;;2.40;;
72711;SDS011;60828;40.292;17.998;2022-08-01T14:39:37;3.93;;;2.30;;
72711;SDS011;60828;40.292;17.998;2022-08-01T14:42:02;7.13;;;2.50;;
72711;SDS011;60828;40.292;17.998;2022-08-01T14:44:28;8.20;;;2.20;;
72711;SDS011;60828;40.292;17.998;2022-08-01T14:46:53;6.50;;;2.57;;
72711;SDS011;60828;40.292;17.998;2022-08-01T14:49:19;9.18;;;2.55;;
72711;SDS011;60828;40.292;17.998;2022-08-01T14:51:45;6.93;;;2.67;;
72711;SDS011;60828;40.292;17.998;2022-08-01T14:54:10;9.38;;;2.90;;
72711;SDS011;60828;40.292;17.998;2022-08-01T14:56:35;6.90;;;2.57;;
72711;SDS011;60828;40.292;17.998;2022-08-01T14:59:01;8.43;;;2.70;;
72711;SDS011;60828;40.292;17.998;2022-08-01T15:01:26;4.55;;;2.47;;
72711;SDS011;60828;40.292;17.998;2022-08-01T15:03:58;8.83;;;2.63;;
72711;SDS011;60828;40.292;17.998;2022-08-01T15:06:23;5.75;;;2.60;;
72711;SDS011;60828;40.292;17.998;2022-08-01T15:08:49;6.10;;;2.60;;
72711;SDS011;60828;40.292;17.998;2022-08-01T15:11:14;12.70;;;2.37;;
72711;SDS011;60828;40.292;17.998;2022-08-01T15:13:40;5.97;;;2.10;;
72711;SDS011;60828;40.292;17.998;2022-08-01T15:16:05;6.10;;;2.40;;
72711;SDS011;60828;40.292;17.998;2022-08-01T15:18:31;5.63;;;2.23;;
72711;SDS011;60828;40.292;17.998;2022-08-01T15:20:56;3.65;;;2.00;;
72711;SDS011;60828;40.292;17.998;2022-08-01T15:23:25;8.13;;;2.43;;
72711;SDS011;60828;40.292;17.998;2022-08-01T15:25:50;5.95;;;2.33;;
72711;SDS011;60828;40.292;17.998;2022-08-01T15:28:16;5.00;;;2.27;;
72711;SDS011;60828;40.292;17.998;2022-08-01T15:30:41;5.47;;;2.40;;
72711;SDS011;60828;40.292;17.998;2022-08-01T15:33:07;6.60;;;2.53;;
72711;SDS011;60828;40.292;17.998;2022-08-01T15:35:32;6.20;;;2.40;;
72711;SDS011;60828;40.292;17.998;2022-08-01T15:37:58;7.47;;;2.50;;
72711;SDS011;60828;40.292;17.998;2022-08-01T15:40:24;5.13;;;2.03;;
72711;SDS011;60828;40.292;17.998;2022-08-01T15:42:49;6.17;;;2.50;;
72711;SDS011;60828;40.292;17.998;2022-08-01T15:45:15;5.10;;;2.28;;
72711;SDS011;60828;40.292;17.998;2022-08-01T15:47:43;5.40;;;2.50;;
72711;SDS011;60828;40.292;17.998;2022-08-01T15:50:09;9.70;;;2.40;;
72711;SDS011;60828;40.292;17.998;2022-08-01T15:52:34;8.75;;;2.70;;
72711;SDS011;60828;40.292;17.998;2022-08-01T15:55:00;8.30;;;2.50;;
72711;SDS011;60828;40.292;17.998;2022-08-01T15:57:26;11.95;;;2.47;;
72711;SDS011;60828;40.292;17.998;2022-08-01T15:59:52;9.57;;;2.47;;
72711;SDS011;60828;40.292;17.998;2022-08-01T16:02:17;9.33;;;2.60;;
72711;SDS011;60828;40.292;17.998;2022-08-01T16:04:43;5.57;;;2.40;;
72711;SDS011;60828;40.292;17.998;2022-08-01T16:07:16;6.03;;;2.28;;
72711;SDS011;60828;40.292;17.998;2022-08-01T16:09:41;6.73;;;2.20;;
72711;SDS011;60828;40.292;17.998;2022-08-01T16:12:07;5.55;;;2.35;;
72711;SDS011;60828;40.292;17.998;2022-08-01T16:14:33;9.87;;;2.50;;
72711;SDS011;60828;40.292;17.998;2022-08-01T16:16:59;6.88;;;2.70;;
72711;SDS011;60828;40.292;17.998;2022-08-01T16:19:24;8.70;;;2.10;;
72711;SDS011;60828;40.292;17.998;2022-08-01T16:21:50;6.37;;;2.20;;
72711;SDS011;60828;40.292;17.998;2022-08-01T16:24:16;4.20;;;2.20;;
72711;SDS011;60828;40.292;17.998;2022-08-01T16:26:41;8.50;;;2.30;;
72711;SDS011;60828;40.292;17.998;2022-08-01T16:29:07;4.22;;;2.40;;
72711;SDS011;60828;40.292;17.998;2022-08-01T16:31:32;4.77;;;2.10;;
72711;SDS011;60828;40.292;17.998;2022-08-01T16:33:58;8.40;;;2.40;;
72711;SDS011;60828;40.292;17.998;2022-08-01T16:36:23;7.37;;;2.50;;
72711;SDS011;60828;40.292;17.998;2022-08-01T16:38:49;6.70;;;2.20;;
72711;SDS011;60828;40.292;17.998;2022-08-01T16:41:14;6.70;;;2.50;;
72711;SDS011;60828;40.292;17.998;2022-08-01T16:43:40;5.55;;;2.28;;
72711;SDS011;60828;40.292;17.998;2022-08-01T16:46:06;12.20;;;2.30;;